Time;durP1;ratioP1;P1;durP2;ratioP2;P2;SDS_P1;SDS_P2;PMS_P1;PMS_P2;Temp;Humidity;BMP_temperature;BMP_pressure;BME280_temperature;BME280_humidity;BME280_pressure;Samples;Min_cycle;Max_cycle;Signal;HPM_P1;HPM_P2
2022/03/13 00:01:58;;;;;;;44.92;19.15;;;;;;;;;;4771070;30;20043;-81
2022/03/13 00:04:48;;;;;;;40.22;16.98;;;;;;;;;;4774498;30;20059;-83
2022/03/13 00:07:37;;;;;;;35.28;14.18;;;;;;;;;;4774613;30;20052;-81
2022/03/13 00:10:29;;;;;;;38.13;16.08;;;;;;;;;;4774417;30;20064;-84
2022/03/13 00:13:19;;;;;;;49.67;17.55;;;;;;;;;;4774504;30;20051;-83
2022/03/13 00:16:09;;;;;;;146.93;48.95;;;;;;;;;;4773963;30;20047;-86
2022/03/13 00:18:57;;;;;;;155.98;58.85;;;;;;;;;;4773915;30;20044;-85
2022/03/13 00:21:50;;;;;;;166.57;64.63;;;;;;;;;;4772214;30;20051;-82
2022/03/13 00:24:36;;;;;;;138.85;48.15;;;;;;;;;;4773269;30;20051;-85
2022/03/13 00:27:21;;;;;;;91.97;34.50;;;;;;;;;;4773781;30;20051;-84
2022/03/13 00:30:07;;;;;;;67.15;28.25;;;;;;;;;;4773636;30;20410;-84
2022/03/13 00:32:52;;;;;;;71.43;25.95;;;;;;;;;;4772235;30;20052;-84
2022/03/13 00:35:38;;;;;;;59.95;25.58;;;;;;;;;;4772059;30;20060;-84
2022/03/13 00:38:25;;;;;;;76.75;28.83;;;;;;;;;;4772100;30;20048;-83
2022/03/13 00:41:11;;;;;;;63.90;24.75;;;;;;;;;;4772072;30;20052;-83
2022/03/13 00:43:56;;;;;;;52.40;23.13;;;;;;;;;;4771802;30;20063;-84
2022/03/13 00:46:42;;;;;;;69.55;28.73;;;;;;;;;;4773003;30;20051;-84
2022/03/13 00:49:29;;;;;;;69.53;28.10;;;;;;;;;;4773725;30;20052;-82
2022/03/13 00:52:15;;;;;;;189.38;57.33;;;;;;;;;;4773595;30;20063;-84
2022/03/13 00:55:01;;;;;;;153.23;46.15;;;;;;;;;;4773597;30;20055;-83
2022/03/13 00:57:46;;;;;;;229.60;67.75;;;;;;;;;;4786458;29;20039;-83
2022/03/13 01:00:32;;;;;;;128.82;43.50;;;;;;;;;;4793966;29;20052;-83
2022/03/13 01:03:35;;;;;;;132.02;48.55;;;;;;;;;;4785197;30;20051;-84
2022/03/13 01:06:21;;;;;;;143.55;52.17;;;;;;;;;;4773334;30;20051;-84
2022/03/13 01:09:09;;;;;;;101.80;38.33;;;;;;;;;;4773622;30;20498;-85
2022/03/13 01:11:54;;;;;;;130.25;47.38;;;;;;;;;;4773611;30;20056;-84
2022/03/13 01:14:40;;;;;;;92.15;36.80;;;;;;;;;;4772877;30;20051;-82
2022/03/13 01:17:25;;;;;;;64.13;24.80;;;;;;;;;;4778900;30;20048;-84
2022/03/13 01:20:19;;;;;;;46.70;18.00;;;;;;;;;;4773053;30;20402;-84
2022/03/13 01:23:04;;;;;;;32.88;14.13;;;;;;;;;;4773426;30;20398;-83
2022/03/13 01:26:21;;;;;;;18.55;9.07;;;;;;;;;;4773088;30;20052;-84
2022/03/13 01:29:11;;;;;;;16.73;8.32;;;;;;;;;;4773307;30;20482;-84
2022/03/13 01:31:57;;;;;;;21.50;8.55;;;;;;;;;;4773253;30;20052;-83
2022/03/13 01:34:47;;;;;;;17.90;8.00;;;;;;;;;;4772863;30;20059;-83
2022/03/13 01:37:40;;;;;;;20.45;9.52;;;;;;;;;;4778864;30;20055;-83
2022/03/13 01:40:32;;;;;;;23.02;10.38;;;;;;;;;;4779172;30;20059;-83
2022/03/13 01:43:17;;;;;;;22.98;10.82;;;;;;;;;;4778128;30;20048;-84
2022/03/13 01:46:04;;;;;;;23.27;10.32;;;;;;;;;;4773035;30;20055;-82
2022/03/13 01:49:06;;;;;;;26.42;11.40;;;;;;;;;;4772499;30;20052;-83
2022/03/13 01:51:51;;;;;;;26.73;10.55;;;;;;;;;;4773236;30;20506;-83
2022/03/13 01:54:40;;;;;;;21.17;11.02;;;;;;;;;;4772917;30;20498;-83
2022/03/13 01:57:25;;;;;;;26.70;11.95;;;;;;;;;;4773051;30;20048;-83
2022/03/13 02:00:11;;;;;;;27.67;12.77;;;;;;;;;;4772629;30;20055;-83
2022/03/13 02:03:02;;;;;;;45.40;16.15;;;;;;;;;;4772572;30;20051;-83
2022/03/13 02:05:48;;;;;;;29.85;14.20;;;;;;;;;;4772623;30;20052;-83
2022/03/13 02:08:38;;;;;;;34.75;14.20;;;;;;;;;;4772489;30;20048;-83
2022/03/13 02:11:36;;;;;;;33.78;15.70;;;;;;;;;;4772631;30;20051;-82
2022/03/13 02:14:23;;;;;;;33.78;13.52;;;;;;;;;;4772635;30;20056;-84
2022/03/13 02:17:09;;;;;;;31.88;13.13;;;;;;;;;;4772340;30;20095;-84
2022/03/13 02:19:55;;;;;;;19.95;8.93;;;;;;;;;;4772536;30;20055;-83
2022/03/13 02:22:45;;;;;;;17.17;8.40;;;;;;;;;;4775115;30;20055;-81
2022/03/13 02:25:34;;;;;;;17.45;9.63;;;;;;;;;;4780962;30;20052;-81
2022/03/13 02:28:22;;;;;;;24.33;11.90;;;;;;;;;;4772441;30;20043;-82
2022/03/13 02:31:13;;;;;;;25.60;11.27;;;;;;;;;;4771873;30;20048;-83
2022/03/13 02:33:58;;;;;;;18.45;9.50;;;;;;;;;;4772361;30;20056;-81
2022/03/13 02:36:49;;;;;;;22.67;9.82;;;;;;;;;;4771615;30;20051;-83
2022/03/13 02:39:37;;;;;;;23.15;11.43;;;;;;;;;;4772183;30;20048;-83
2022/03/13 02:42:22;;;;;;;34.83;15.07;;;;;;;;;;4772027;30;20471;-83
2022/03/13 02:45:07;;;;;;;35.03;15.85;;;;;;;;;;4771919;30;20052;-83
2022/03/13 02:47:52;;;;;;;47.40;18.70;;;;;;;;;;4772015;30;20047;-83
2022/03/13 02:50:39;;;;;;;45.17;19.88;;;;;;;;;;4771195;30;20047;-83
2022/03/13 02:53:25;;;;;;;138.20;42.05;;;;;;;;;;4771618;30;20052;-83
2022/03/13 02:56:12;;;;;;;80.20;31.15;;;;;;;;;;4770958;30;20056;-83
2022/03/13 02:58:57;;;;;;;107.65;37.80;;;;;;;;;;4771654;30;20051;-83
2022/03/13 03:01:43;;;;;;;87.22;30.77;;;;;;;;;;4771659;30;20379;-82
2022/03/13 03:04:28;;;;;;;92.45;32.05;;;;;;;;;;4771517;30;20051;-82
2022/03/13 03:07:14;;;;;;;83.07;30.38;;;;;;;;;;4771625;30;20043;-83
2022/03/13 03:09:59;;;;;;;55.78;21.17;;;;;;;;;;4771278;30;20479;-82
2022/03/13 03:12:45;;;;;;;59.47;24.50;;;;;;;;;;4776480;30;20048;-82
2022/03/13 03:15:31;;;;;;;47.47;20.83;;;;;;;;;;4771506;30;20060;-83
2022/03/13 03:18:16;;;;;;;44.15;18.63;;;;;;;;;;4795211;29;20035;-83
2022/03/13 03:21:02;;;;;;;32.15;16.10;;;;;;;;;;4783938;29;20048;-82
2022/03/13 03:23:49;;;;;;;22.20;11.98;;;;;;;;;;4774402;30;20055;-83
2022/03/13 03:26:36;;;;;;;20.98;10.77;;;;;;;;;;4771054;30;20055;-82
2022/03/13 03:29:25;;;;;;;23.40;9.93;;;;;;;;;;4771931;30;20407;-82
2022/03/13 03:32:11;;;;;;;20.45;10.75;;;;;;;;;;4770948;30;20056;-83
2022/03/13 03:34:56;;;;;;;22.63;10.18;;;;;;;;;;4771520;30;20043;-82
2022/03/13 03:37:42;;;;;;;20.42;9.00;;;;;;;;;;4777053;30;20415;-82
2022/03/13 03:40:30;;;;;;;19.83;8.30;;;;;;;;;;4771418;30;20052;-83
2022/03/13 03:43:16;;;;;;;15.18;8.07;;;;;;;;;;4771663;30;20055;-82
2022/03/13 03:46:02;;;;;;;17.05;8.35;;;;;;;;;;4771190;30;20047;-83
2022/03/13 03:48:47;;;;;;;18.27;8.18;;;;;;;;;;4757901;30;20064;-83
2022/03/13 03:51:32;;;;;;;18.15;8.77;;;;;;;;;;4775912;30;20418;-82
2022/03/13 03:54:19;;;;;;;18.95;8.48;;;;;;;;;;4770807;30;20051;-83
2022/03/13 03:57:04;;;;;;;21.75;10.75;;;;;;;;;;4770799;30;20507;-82
2022/03/13 03:59:49;;;;;;;27.75;11.07;;;;;;;;;;4770904;30;20048;-81
2022/03/13 04:02:35;;;;;;;17.60;9.15;;;;;;;;;;4771064;30;20047;-82
2022/03/13 04:05:22;;;;;;;20.02;10.25;;;;;;;;;;4771079;30;20055;-82
2022/03/13 04:08:07;;;;;;;31.50;13.10;;;;;;;;;;4770703;30;20040;-82
2022/03/13 04:10:53;;;;;;;41.28;14.48;;;;;;;;;;4771048;30;20060;-83
2022/03/13 04:13:39;;;;;;;52.72;18.13;;;;;;;;;;4771092;30;20052;-83
2022/03/13 04:16:24;;;;;;;42.60;14.95;;;;;;;;;;4770506;30;20047;-83
2022/03/13 04:19:10;;;;;;;32.20;12.77;;;;;;;;;;4770798;30;20055;-82
2022/03/13 04:21:56;;;;;;;30.80;11.52;;;;;;;;;;4770546;30;20051;-79
2022/03/13 04:24:41;;;;;;;24.50;10.20;;;;;;;;;;4757423;30;20055;-81
2022/03/13 04:27:27;;;;;;;19.92;9.75;;;;;;;;;;4770746;30;20048;-83
2022/03/13 04:30:13;;;;;;;20.23;9.30;;;;;;;;;;4770629;30;20047;-81
2022/03/13 04:33:00;;;;;;;22.80;10.48;;;;;;;;;;4770806;30;20059;-81
2022/03/13 04:35:45;;;;;;;23.38;10.23;;;;;;;;;;4770536;30;20554;-80
2022/03/13 04:38:31;;;;;;;29.17;10.45;;;;;;;;;;4770325;30;20051;-81
2022/03/13 04:41:17;;;;;;;30.00;12.18;;;;;;;;;;4770855;30;20407;-83
2022/03/13 04:44:28;;;;;;;22.75;8.65;;;;;;;;;;4774574;29;20056;-81
2022/03/13 04:47:14;;;;;;;38.03;14.02;;;;;;;;;;4774765;30;20052;-82
2022/03/13 05:35:22;;;;;;;38.42;17.00;;;;;;;;;;4754270;30;20369;-82
2022/03/13 05:38:07;;;;;;;44.17;19.63;;;;;;;;;;4760629;30;20052;-79
2022/03/13 05:40:53;;;;;;;39.85;17.92;;;;;;;;;;4755192;30;20044;-82
2022/03/13 05:43:42;;;;;;;56.15;19.20;;;;;;;;;;4755325;30;20056;-82
2022/03/13 05:46:28;;;;;;;153.77;45.40;;;;;;;;;;4754594;30;20412;-79
2022/03/13 05:49:13;;;;;;;85.40;28.50;;;;;;;;;;4755122;30;20056;-81
2022/03/13 05:52:00;;;;;;;74.95;29.60;;;;;;;;;;4760928;30;20392;-82
2022/03/13 05:54:46;;;;;;;61.97;26.58;;;;;;;;;;4754929;30;20044;-81
2022/03/13 05:57:37;;;;;;;47.25;22.27;;;;;;;;;;4755641;30;20048;-82
2022/03/13 06:00:25;;;;;;;35.03;18.30;;;;;;;;;;4768419;30;20040;-80
2022/03/13 06:03:11;;;;;;;29.35;16.50;;;;;;;;;;4754758;30;20052;-82
2022/03/13 06:05:57;;;;;;;36.63;20.58;;;;;;;;;;4747741;30;20401;-82
2022/03/13 06:08:43;;;;;;;38.28;19.95;;;;;;;;;;4760564;30;20056;-84
2022/03/13 06:11:28;;;;;;;35.58;18.42;;;;;;;;;;4754869;30;20060;-81
2022/03/13 06:14:13;;;;;;;34.92;16.95;;;;;;;;;;4754453;30;20041;-83
2022/03/13 06:16:58;;;;;;;35.60;18.35;;;;;;;;;;4754259;30;20052;-83
2022/03/13 06:19:44;;;;;;;43.25;20.33;;;;;;;;;;4754536;30;20048;-83
2022/03/13 06:22:29;;;;;;;33.50;18.08;;;;;;;;;;4754856;30;20047;-80
2022/03/13 06:25:16;;;;;;;35.97;17.55;;;;;;;;;;4754473;30;20048;-83
2022/03/13 06:28:01;;;;;;;32.35;17.52;;;;;;;;;;4754478;30;20056;-83
2022/03/13 06:30:47;;;;;;;10.70;6.82;;;;;;;;;;4746955;30;20052;-83
2022/03/13 06:33:33;;;;;;;29.38;12.43;;;;;;;;;;4756751;30;20052;-83
2022/03/13 06:36:18;;;;;;;32.60;12.80;;;;;;;;;;4754021;30;20048;-81
2022/03/13 06:39:04;;;;;;;20.27;9.80;;;;;;;;;;4752915;30;20040;-81
2022/03/13 06:41:51;;;;;;;22.58;12.35;;;;;;;;;;4757249;30;20404;-82
2022/03/13 06:44:36;;;;;;;5.70;4.03;;;;;;;;;;4751135;30;20044;-81
2022/03/13 06:47:22;;;;;;;32.53;14.20;;;;;;;;;;4752185;30;20052;-83
2022/03/13 06:50:08;;;;;;;48.80;25.02;;;;;;;;;;4751246;30;20048;-81
2022/03/13 06:52:54;;;;;;;21.35;10.10;;;;;;;;;;4751956;30;20048;-82
2022/03/13 06:55:40;;;;;;;48.78;20.52;;;;;;;;;;4756360;30;20048;-82
2022/03/13 06:58:26;;;;;;;46.88;22.85;;;;;;;;;;4753658;30;20040;-81
2022/03/13 07:01:11;;;;;;;47.17;19.88;;;;;;;;;;4758644;30;20473;-81
2022/03/13 07:03:56;;;;;;;39.65;19.83;;;;;;;;;;4753061;30;20052;-81
2022/03/13 07:06:42;;;;;;;41.83;21.05;;;;;;;;;;4749731;30;20040;-80
2022/03/13 07:09:28;;;;;;;26.52;10.75;;;;;;;;;;4751091;30;20052;-81
2022/03/13 07:12:14;;;;;;;38.47;19.75;;;;;;;;;;4758958;30;20400;-82
2022/03/13 07:15:00;;;;;;;42.35;19.02;;;;;;;;;;4761512;30;20048;-81
2022/03/13 07:17:46;;;;;;;41.25;21.95;;;;;;;;;;4763026;30;20048;-79
2022/03/13 07:20:32;;;;;;;36.25;17.25;;;;;;;;;;4757862;30;20051;-79
2022/03/13 07:23:17;;;;;;;47.03;22.15;;;;;;;;;;4757932;30;20048;-80
2022/03/13 07:26:03;;;;;;;37.92;17.02;;;;;;;;;;4756425;30;20044;-80
2022/03/13 07:28:48;;;;;;;32.35;17.25;;;;;;;;;;4759060;30;20060;-80
2022/03/13 07:31:35;;;;;;;24.63;12.23;;;;;;;;;;4758260;30;20044;-81
2022/03/13 07:34:20;;;;;;;40.25;18.88;;;;;;;;;;4757549;30;20052;-80
2022/03/13 07:37:08;;;;;;;39.63;15.65;;;;;;;;;;4754579;30;20044;-82
2022/03/13 07:39:54;;;;;;;30.13;15.45;;;;;;;;;;4753192;30;20045;-81
2022/03/13 07:42:39;;;;;;;11.45;8.63;;;;;;;;;;4753190;30;20044;-82
2022/03/13 07:45:28;;;;;;;78.82;41.15;;;;;;;;;;4751907;30;20048;-82
2022/03/13 07:48:13;;;;;;;41.33;18.95;;;;;;;;;;4753638;30;20056;-80
2022/03/13 07:51:00;;;;;;;633.50;421.27;;;;;;;;;;4756344;30;20496;-81
2022/03/13 07:53:47;;;;;;;49.40;25.35;;;;;;;;;;4759434;30;20044;-82
2022/03/13 07:56:33;;;;;;;33.25;16.60;;;;;;;;;;4767400;30;20044;-82
2022/03/13 07:59:19;;;;;;;38.55;19.40;;;;;;;;;;4767164;30;20044;-83
2022/03/13 08:02:05;;;;;;;30.73;14.18;;;;;;;;;;4755685;30;20055;-82
2022/03/13 08:04:50;;;;;;;29.77;13.43;;;;;;;;;;4752817;30;20048;-81
2022/03/13 08:07:35;;;;;;;55.38;20.50;;;;;;;;;;4748140;30;20064;-83
2022/03/13 08:10:23;;;;;;;30.10;13.18;;;;;;;;;;4756423;30;20056;-83
2022/03/13 08:13:09;;;;;;;34.05;14.48;;;;;;;;;;4752995;30;20052;-82
2022/03/13 08:15:54;;;;;;;23.60;11.70;;;;;;;;;;4752858;30;20052;-84
2022/03/13 08:18:40;;;;;;;25.85;12.93;;;;;;;;;;4758244;30;20044;-83
2022/03/13 08:21:26;;;;;;;28.77;12.98;;;;;;;;;;4749897;30;20051;-82
2022/03/13 08:24:14;;;;;;;26.08;12.25;;;;;;;;;;4753527;30;20044;-82
2022/03/13 08:26:59;;;;;;;16.95;8.80;;;;;;;;;;4755015;30;20044;-79
2022/03/13 08:29:44;;;;;;;19.63;9.25;;;;;;;;;;4755420;30;20047;-81
2022/03/13 08:32:30;;;;;;;22.13;11.98;;;;;;;;;;4761116;30;20056;-85
2022/03/13 08:35:15;;;;;;;26.42;12.38;;;;;;;;;;4754156;30;20052;-82
2022/03/13 08:38:01;;;;;;;33.40;18.90;;;;;;;;;;4762215;30;20052;-85
2022/03/13 08:40:46;;;;;;;19.50;10.77;;;;;;;;;;4755651;30;20056;-86
2022/03/13 08:43:31;;;;;;;28.45;13.15;;;;;;;;;;4755916;30;20044;-86
2022/03/13 08:46:17;;;;;;;25.55;13.23;;;;;;;;;;4754560;30;20040;-83
2022/03/13 08:49:04;;;;;;;25.83;12.18;;;;;;;;;;4755925;30;20052;-84
2022/03/13 08:51:49;;;;;;;29.38;13.27;;;;;;;;;;4756038;30;20040;-85
2022/03/13 08:54:34;;;;;;;21.15;11.50;;;;;;;;;;4755376;30;20389;-84
2022/03/13 08:57:20;;;;;;;19.15;8.27;;;;;;;;;;4755203;30;20043;-84
2022/03/13 09:00:08;;;;;;;23.17;10.38;;;;;;;;;;4755951;30;20040;-83
2022/03/13 09:02:53;;;;;;;21.08;10.35;;;;;;;;;;4755183;30;20052;-81
2022/03/13 09:05:39;;;;;;;21.88;10.70;;;;;;;;;;4760705;30;20052;-82
2022/03/13 09:08:24;;;;;;;17.92;8.63;;;;;;;;;;4755235;30;20056;-82
2022/03/13 09:11:10;;;;;;;19.70;11.07;;;;;;;;;;4755370;30;20056;-82
2022/03/13 09:13:58;;;;;;;18.70;9.82;;;;;;;;;;4760793;30;20044;-82
2022/03/13 09:16:44;;;;;;;18.45;10.43;;;;;;;;;;4767374;30;20048;-82
2022/03/13 09:19:30;;;;;;;26.83;12.73;;;;;;;;;;4754957;30;20044;-83
2022/03/13 09:22:17;;;;;;;19.40;10.93;;;;;;;;;;4769662;30;20051;-82
2022/03/13 09:25:03;;;;;;;96.53;35.22;;;;;;;;;;4772808;30;20051;-82
2022/03/13 09:27:49;;;;;;;19.40;10.45;;;;;;;;;;4773084;30;20392;-82
2022/03/13 09:30:35;;;;;;;15.35;9.32;;;;;;;;;;4765282;30;20048;-82
2022/03/13 09:33:20;;;;;;;33.08;14.85;;;;;;;;;;4754942;30;20056;-82
2022/03/13 09:36:06;;;;;;;20.35;11.70;;;;;;;;;;4760186;30;20048;-82
2022/03/13 09:38:52;;;;;;;22.70;12.05;;;;;;;;;;4760920;30;20048;-82
2022/03/13 09:41:38;;;;;;;49.55;28.35;;;;;;;;;;4760734;30;20048;-82
2022/03/13 09:44:24;;;;;;;34.53;15.38;;;;;;;;;;4754005;30;20048;-82
2022/03/13 09:47:11;;;;;;;21.05;11.27;;;;;;;;;;4770558;30;20056;-82
2022/03/13 09:49:56;;;;;;;20.63;11.63;;;;;;;;;;4778631;30;20055;-82
2022/03/13 09:52:42;;;;;;;27.50;14.43;;;;;;;;;;4772856;30;20048;-81
2022/03/13 09:55:29;;;;;;;22.88;12.02;;;;;;;;;;4768242;30;20052;-79
2022/03/13 09:58:14;;;;;;;21.35;10.35;;;;;;;;;;4753503;30;20477;-81
2022/03/13 10:01:01;;;;;;;21.23;11.10;;;;;;;;;;4753867;30;20048;-80
2022/03/13 10:03:46;;;;;;;25.45;14.32;;;;;;;;;;4747554;30;20389;-80
2022/03/13 10:06:52;;;;;;;24.15;14.05;;;;;;;;;;4742289;30;20474;-83
2022/03/13 10:09:40;;;;;;;24.48;11.68;;;;;;;;;;4745888;30;20485;-82
2022/03/13 10:12:26;;;;;;;22.52;12.00;;;;;;;;;;4750649;30;20040;-82
2022/03/13 10:15:13;;;;;;;22.13;12.30;;;;;;;;;;4742926;30;20464;-82
2022/03/13 10:18:10;;;;;;;20.80;12.30;;;;;;;;;;4754035;30;20048;-83
2022/03/13 10:20:56;;;;;;;23.83;13.98;;;;;;;;;;4744884;30;20036;-82
2022/03/13 10:23:43;;;;;;;22.08;12.15;;;;;;;;;;4751191;30;20047;-82
2022/03/13 10:26:32;;;;;;;21.20;11.52;;;;;;;;;;4746286;30;20053;-82
2022/03/13 10:29:30;;;;;;;22.08;10.50;;;;;;;;;;4750433;30;20049;-82
2022/03/13 10:32:16;;;;;;;30.50;15.18;;;;;;;;;;4754162;30;20048;-83
2022/03/13 10:35:02;;;;;;;19.33;10.45;;;;;;;;;;4770613;30;20047;-83
2022/03/13 10:37:48;;;;;;;30.42;14.32;;;;;;;;;;4778448;30;20055;-82
2022/03/13 10:40:36;;;;;;;18.10;9.75;;;;;;;;;;4778637;30;20051;-81
2022/03/13 10:43:26;;;;;;;13.80;8.77;;;;;;;;;;4779439;30;20051;-81
2022/03/13 10:46:28;;;;;;;25.30;11.98;;;;;;;;;;4780031;30;20055;-82
2022/03/13 10:49:13;;;;;;;18.70;9.77;;;;;;;;;;4771394;30;20408;-84
2022/03/13 10:51:59;;;;;;;15.82;8.98;;;;;;;;;;4761838;30;20048;-82
2022/03/13 10:54:46;;;;;;;18.58;9.98;;;;;;;;;;4740004;30;20052;-84
2022/03/13 10:57:31;;;;;;;22.73;11.45;;;;;;;;;;4759304;30;20114;-83
2022/03/13 11:00:17;;;;;;;32.47;13.25;;;;;;;;;;4758119;30;20539;-82
2022/03/13 11:03:14;;;;;;;13.80;6.25;;;;;;;;;;4747488;30;20057;-83
2022/03/13 11:05:58;;;;;;;8.65;5.38;;;;;;;;;;4728483;30;20068;-82
2022/03/13 11:08:45;;;;;;;12.02;6.53;;;;;;;;;;4745536;30;20048;-83
2022/03/13 11:11:32;;;;;;;14.52;7.43;;;;;;;;;;4754606;30;20470;-81
2022/03/13 11:14:18;;;;;;;15.57;9.77;;;;;;;;;;4743955;30;20052;-81
2022/03/13 11:17:09;;;;;;;27.63;14.85;;;;;;;;;;4758127;30;20048;-82
2022/03/13 11:19:57;;;;;;;20.50;11.77;;;;;;;;;;4744904;30;20036;-81
2022/03/13 11:22:42;;;;;;;20.98;11.05;;;;;;;;;;4754736;30;20052;-82
2022/03/13 11:25:27;;;;;;;35.75;18.42;;;;;;;;;;4759151;30;20048;-82
2022/03/13 11:28:13;;;;;;;20.17;11.50;;;;;;;;;;4752364;30;20052;-82
2022/03/13 11:30:58;;;;;;;18.80;10.80;;;;;;;;;;4752986;30;20044;-82
2022/03/13 11:33:45;;;;;;;43.60;19.10;;;;;;;;;;4753044;30;20048;-81
2022/03/13 11:36:33;;;;;;;23.98;13.77;;;;;;;;;;4758207;30;20393;-82
2022/03/13 11:39:30;;;;;;;20.77;12.68;;;;;;;;;;4748797;30;20044;-81
2022/03/13 11:42:24;;;;;;;102.78;53.53;;;;;;;;;;4757822;30;20047;-81
2022/03/13 11:45:35;;;;;;;23.73;12.45;;;;;;;;;;4758738;30;20048;-82
2022/03/13 11:48:22;;;;;;;23.60;11.60;;;;;;;;;;4755828;30;20403;-82
2022/03/13 11:51:11;;;;;;;24.30;14.02;;;;;;;;;;4749746;30;20044;-81
2022/03/13 11:53:58;;;;;;;15.98;9.75;;;;;;;;;;4752536;30;20052;-82
2022/03/13 11:56:49;;;;;;;22.92;10.60;;;;;;;;;;4759617;30;20064;-83
2022/03/13 11:59:34;;;;;;;18.10;8.80;;;;;;;;;;4752785;30;20052;-81
2022/03/13 12:02:51;;;;;;;44.28;24.38;;;;;;;;;;4752718;30;20040;-82
2022/03/13 12:05:47;;;;;;;32.03;13.45;;;;;;;;;;4722066;30;20040;-82
2022/03/13 12:09:03;;;;;;;15.23;8.95;;;;;;;;;;4758421;30;20052;-82
2022/03/13 12:12:09;;;;;;;14.93;8.52;;;;;;;;;;4755607;30;20553;-81
2022/03/13 12:14:57;;;;;;;23.63;10.55;;;;;;;;;;4739369;30;20489;-83
2022/03/13 12:17:46;;;;;;;14.93;7.40;;;;;;;;;;4756466;30;20040;-81
2022/03/13 12:20:33;;;;;;;23.08;11.00;;;;;;;;;;4745955;30;20469;-81
2022/03/13 12:23:26;;;;;;;13.13;7.03;;;;;;;;;;4758705;30;20044;-83
2022/03/13 12:26:27;;;;;;;100.97;37.90;;;;;;;;;;4774937;30;20477;-80
2022/03/13 12:29:16;;;;;;;23.98;11.55;;;;;;;;;;4771201;30;20035;-80
2022/03/13 12:32:10;;;;;;;14.80;8.10;;;;;;;;;;4739736;30;20503;-80
2022/03/13 12:34:57;;;;;;;17.30;9.73;;;;;;;;;;4747659;30;20052;-81
2022/03/13 12:37:55;;;;;;;14.77;6.10;;;;;;;;;;4758732;30;20048;-81
2022/03/13 12:40:47;;;;;;;14.25;7.32;;;;;;;;;;4740844;30;20048;-82
2022/03/13 12:43:50;;;;;;;15.90;7.97;;;;;;;;;;4745336;30;20495;-81
2022/03/13 12:46:36;;;;;;;20.48;10.05;;;;;;;;;;4752185;30;20396;-82
2022/03/13 12:49:26;;;;;;;9.20;5.75;;;;;;;;;;4751940;30;20044;-83
2022/03/13 12:52:15;;;;;;;14.85;7.05;;;;;;;;;;4753403;30;20040;-82
2022/03/13 12:55:01;;;;;;;12.75;5.90;;;;;;;;;;4752224;30;20040;-81
2022/03/13 12:57:51;;;;;;;13.38;5.95;;;;;;;;;;4752645;30;20048;-82
2022/03/13 13:00:37;;;;;;;12.65;7.53;;;;;;;;;;4751028;30;20474;-82
2022/03/13 13:03:23;;;;;;;6.53;3.85;;;;;;;;;;4744591;30;20044;-82
2022/03/13 13:06:09;;;;;;;13.52;5.95;;;;;;;;;;4751239;30;20048;-83
2022/03/13 13:08:54;;;;;;;11.07;6.43;;;;;;;;;;4751367;30;20053;-81
2022/03/13 13:11:40;;;;;;;15.30;7.53;;;;;;;;;;4760890;30;20056;-82
2022/03/13 13:14:30;;;;;;;9.88;4.75;;;;;;;;;;4754774;30;20373;-81
2022/03/13 13:17:18;;;;;;;18.48;11.30;;;;;;;;;;4755003;30;20052;-82
2022/03/13 13:20:06;;;;;;;41.80;29.38;;;;;;;;;;4754893;30;20048;-82
2022/03/13 13:23:07;;;;;;;11.98;6.57;;;;;;;;;;4762304;30;20056;-81
2022/03/13 13:25:54;;;;;;;15.45;8.10;;;;;;;;;;4765983;30;20056;-82
2022/03/13 13:28:56;;;;;;;13.15;6.25;;;;;;;;;;4770088;30;20051;-84
2022/03/13 13:31:41;;;;;;;19.50;8.35;;;;;;;;;;4758616;30;20469;-83
2022/03/13 13:34:26;;;;;;;7.40;4.53;;;;;;;;;;4754574;30;20056;-82
2022/03/13 13:37:12;;;;;;;184.27;74.38;;;;;;;;;;4746567;30;20063;-81
2022/03/13 13:40:07;;;;;;;12.77;5.40;;;;;;;;;;4760706;30;20052;-80
2022/03/13 13:43:00;;;;;;;10.85;5.50;;;;;;;;;;4760526;30;20048;-83
2022/03/13 13:45:47;;;;;;;14.60;6.78;;;;;;;;;;4754972;30;20048;-82
2022/03/13 13:48:43;;;;;;;21.73;9.80;;;;;;;;;;4754660;30;20059;-83
2022/03/13 13:51:35;;;;;;;15.88;7.03;;;;;;;;;;4747756;30;20051;-82
2022/03/13 13:54:21;;;;;;;19.75;7.32;;;;;;;;;;4760712;30;20393;-82
2022/03/13 13:57:06;;;;;;;12.10;5.85;;;;;;;;;;4754969;30;20036;-81
2022/03/13 13:59:52;;;;;;;17.20;7.90;;;;;;;;;;4760246;30;20048;-81
2022/03/13 14:02:37;;;;;;;9.68;5.72;;;;;;;;;;4753956;30;20048;-82
2022/03/13 14:05:23;;;;;;;12.50;5.57;;;;;;;;;;4759523;30;20485;-84
2022/03/13 14:08:09;;;;;;;11.30;5.53;;;;;;;;;;4758303;30;20585;-80
2022/03/13 14:10:55;;;;;;;10.40;6.00;;;;;;;;;;4758300;30;20401;-82
2022/03/13 14:13:47;;;;;;;9.30;6.10;;;;;;;;;;4758340;30;20473;-82
2022/03/13 14:16:32;;;;;;;14.65;7.63;;;;;;;;;;4756643;30;20040;-80
2022/03/13 14:19:18;;;;;;;38.72;9.07;;;;;;;;;;4744345;30;20040;-83
2022/03/13 14:22:06;;;;;;;9.23;5.70;;;;;;;;;;4757761;30;20473;-81
2022/03/13 14:24:51;;;;;;;11.32;6.03;;;;;;;;;;4758541;30;20036;-81
2022/03/13 14:27:36;;;;;;;16.02;7.80;;;;;;;;;;4755275;30;20480;-82
2022/03/13 14:30:22;;;;;;;10.80;4.90;;;;;;;;;;4772100;30;20048;-82
2022/03/13 14:33:07;;;;;;;9.70;5.47;;;;;;;;;;4753932;30;20056;-82
2022/03/13 14:35:53;;;;;;;21.20;8.80;;;;;;;;;;4759902;30;20053;-83
2022/03/13 14:38:47;;;;;;;12.38;6.90;;;;;;;;;;4752405;30;20052;-82
2022/03/13 14:41:33;;;;;;;12.05;6.88;;;;;;;;;;4770332;30;20476;-80
2022/03/13 14:44:18;;;;;;;14.63;8.27;;;;;;;;;;4777754;30;20460;-82
2022/03/13 14:47:04;;;;;;;10.60;6.03;;;;;;;;;;4758951;30;20048;-81
2022/03/13 14:49:50;;;;;;;12.80;6.72;;;;;;;;;;4737388;30;20056;-80
2022/03/13 14:52:35;;;;;;;9.52;5.40;;;;;;;;;;4760333;30;20048;-81
2022/03/13 14:55:21;;;;;;;12.57;5.03;;;;;;;;;;4753669;30;20056;-79
2022/03/13 14:58:07;;;;;;;10.40;5.65;;;;;;;;;;4767364;30;20051;-79
2022/03/13 15:00:53;;;;;;;9.52;5.32;;;;;;;;;;4777196;30;20048;-78
2022/03/13 15:03:38;;;;;;;15.38;7.97;;;;;;;;;;4753255;30;20055;-80
2022/03/13 15:06:23;;;;;;;10.98;5.43;;;;;;;;;;4759362;30;20044;-79
2022/03/13 15:09:09;;;;;;;11.02;6.57;;;;;;;;;;4753479;30;20393;-79
2022/03/13 15:11:54;;;;;;;11.98;6.43;;;;;;;;;;4753186;30;20048;-78
2022/03/13 15:14:40;;;;;;;17.85;8.93;;;;;;;;;;4753129;30;20051;-81
2022/03/13 15:17:27;;;;;;;13.05;6.63;;;;;;;;;;4741997;30;20473;-79
2022/03/13 15:20:12;;;;;;;15.02;7.70;;;;;;;;;;4750398;30;20040;-82
2022/03/13 15:22:58;;;;;;;12.77;6.25;;;;;;;;;;4752749;30;20048;-80
2022/03/13 15:25:45;;;;;;;11.63;6.10;;;;;;;;;;4751678;30;20036;-82
2022/03/13 15:28:30;;;;;;;17.00;7.10;;;;;;;;;;4756478;30;20048;-81
2022/03/13 15:31:18;;;;;;;23.00;11.05;;;;;;;;;;4759257;30;20060;-81
2022/03/13 15:34:03;;;;;;;17.02;9.23;;;;;;;;;;4770717;30;20388;-80
2022/03/13 15:36:53;;;;;;;26.42;11.07;;;;;;;;;;4753078;30;20048;-81
2022/03/13 15:39:39;;;;;;;26.77;12.93;;;;;;;;;;4759291;30;20048;-81
2022/03/13 15:42:25;;;;;;;45.05;17.33;;;;;;;;;;4753059;30;20052;-80
2022/03/13 15:45:12;;;;;;;46.75;19.70;;;;;;;;;;4758855;30;20044;-79
2022/03/13 15:47:58;;;;;;;163.25;59.22;;;;;;;;;;4752529;30;20393;-80
2022/03/13 15:50:44;;;;;;;50.85;22.10;;;;;;;;;;4752098;30;20064;-82
2022/03/13 15:53:30;;;;;;;85.82;32.45;;;;;;;;;;4753266;30;20056;-81
2022/03/13 15:56:15;;;;;;;61.00;25.13;;;;;;;;;;4752526;30;20040;-81
2022/03/13 15:59:02;;;;;;;30.55;14.73;;;;;;;;;;4758371;30;20069;-80
2022/03/13 16:01:47;;;;;;;44.25;24.63;;;;;;;;;;4753044;30;20048;-83
2022/03/13 16:04:33;;;;;;;62.42;31.63;;;;;;;;;;4758770;30;20048;-82
2022/03/13 16:07:19;;;;;;;103.38;49.40;;;;;;;;;;4759088;30;20052;-81
2022/03/13 16:10:05;;;;;;;175.25;93.53;;;;;;;;;;4754596;30;20048;-80
2022/03/13 16:12:50;;;;;;;51.90;27.13;;;;;;;;;;4762697;30;20408;-80
2022/03/13 16:15:36;;;;;;;62.55;33.58;;;;;;;;;;4758981;30;20056;-80
2022/03/13 16:18:22;;;;;;;56.88;31.20;;;;;;;;;;4759380;30;20048;-80
2022/03/13 16:21:07;;;;;;;62.38;35.40;;;;;;;;;;4757635;30;20052;-81
2022/03/13 16:23:54;;;;;;;89.00;46.80;;;;;;;;;;4752080;30;20036;-82
2022/03/13 16:26:39;;;;;;;88.70;50.13;;;;;;;;;;4756888;30;20048;-82
2022/03/13 16:29:25;;;;;;;74.07;37.08;;;;;;;;;;4752271;30;20104;-82
2022/03/13 16:32:16;;;;;;;77.30;41.60;;;;;;;;;;4753051;30;20060;-80
2022/03/13 16:35:01;;;;;;;59.50;31.00;;;;;;;;;;4753658;30;20045;-80
2022/03/13 16:37:47;;;;;;;46.22;25.52;;;;;;;;;;4752880;30;20044;-82
2022/03/13 16:40:33;;;;;;;63.08;34.20;;;;;;;;;;4751608;30;20052;-80
2022/03/13 16:43:18;;;;;;;45.20;21.60;;;;;;;;;;4756561;30;20488;-81
2022/03/13 16:46:04;;;;;;;64.22;29.27;;;;;;;;;;4760873;30;20048;-82
2022/03/13 16:48:49;;;;;;;71.18;34.97;;;;;;;;;;4760907;30;20044;-81
2022/03/13 16:51:35;;;;;;;125.90;49.03;;;;;;;;;;4761730;30;20047;-81
2022/03/13 16:54:20;;;;;;;142.85;65.68;;;;;;;;;;4757718;30;20056;-81
2022/03/13 16:57:06;;;;;;;80.82;40.80;;;;;;;;;;4755766;30;20048;-80
2022/03/13 16:59:52;;;;;;;79.03;39.92;;;;;;;;;;4761607;30;20056;-82
2022/03/13 17:02:37;;;;;;;119.20;52.10;;;;;;;;;;4747287;30;20056;-80
2022/03/13 17:05:23;;;;;;;78.95;38.40;;;;;;;;;;4761619;30;20051;-81